createdAt,value
2022-07-30T00:00:09.238Z,449
2022-07-30T00:01:52.919Z,451
2022-07-30T00:03:36.642Z,451.6
2022-07-30T00:05:20.350Z,455.1
2022-07-30T00:07:04.058Z,456.3
2022-07-30T00:08:47.721Z,455.7
2022-07-30T00:10:31.447Z,455.8
2022-07-30T00:12:15.133Z,453.2
2022-07-30T00:13:58.842Z,451.3
2022-07-30T00:15:42.535Z,449.6
2022-07-30T00:17:26.251Z,448.1
2022-07-30T00:19:09.968Z,448.2
2022-07-30T00:20:53.664Z,448.1
2022-07-30T00:22:37.356Z,449.3
2022-07-30T00:24:21.059Z,449.9
2022-07-30T00:26:04.778Z,450.6
2022-07-30T00:27:48.465Z,454.1
2022-07-30T00:29:32.163Z,452
2022-07-30T00:31:15.896Z,450.1
2022-07-30T00:32:59.612Z,450.2
2022-07-30T00:34:43.295Z,451.1
2022-07-30T00:36:27.001Z,452.6
2022-07-30T00:38:10.694Z,453.7
2022-07-30T00:39:54.405Z,455.5
2022-07-30T00:41:38.099Z,458.5
2022-07-30T00:43:21.808Z,460.2
2022-07-30T00:45:05.513Z,461.8
2022-07-30T00:46:49.219Z,460.5
2022-07-30T00:48:32.909Z,457.6
2022-07-30T00:50:16.625Z,457.8
2022-07-30T00:52:00.324Z,459.9
2022-07-30T00:53:44.024Z,461.5
2022-07-30T00:55:27.727Z,458.7
2022-07-30T00:57:11.433Z,457.4
2022-07-30T00:58:55.139Z,459.1
2022-07-30T01:00:38.847Z,461.4
2022-07-30T01:02:22.548Z,460.5
2022-07-30T01:04:06.245Z,461.4
2022-07-30T01:05:49.950Z,461.7
2022-07-30T01:07:33.646Z,464
2022-07-30T01:09:17.342Z,468.4
2022-07-30T01:11:01.052Z,466.5
2022-07-30T01:12:44.758Z,464.2
2022-07-30T01:14:28.471Z,461
2022-07-30T01:16:12.161Z,461.2
2022-07-30T01:17:55.854Z,460.4
2022-07-30T01:19:39.556Z,460.8
2022-07-30T01:21:23.278Z,459.9
2022-07-30T01:23:06.993Z,462.7
2022-07-30T01:24:50.664Z,462.9
2022-07-30T01:26:34.379Z,463.9
2022-07-30T01:28:18.086Z,464
2022-07-30T01:30:01.774Z,461.8
2022-07-30T01:31:45.482Z,466.4
2022-07-30T01:33:29.176Z,466.5
2022-07-30T01:35:12.878Z,464.6
2022-07-30T01:36:56.622Z,461.3
2022-07-30T01:38:40.283Z,461.4
2022-07-30T01:40:23.986Z,464
2022-07-30T01:42:07.700Z,465
2022-07-30T01:43:51.386Z,466
2022-07-30T01:45:35.092Z,465.5
2022-07-30T01:47:18.822Z,463.8
2022-07-30T01:49:02.507Z,464.2
2022-07-30T01:50:46.185Z,462.3
2022-07-30T01:52:29.898Z,461.6
2022-07-30T01:54:13.609Z,462.9
2022-07-30T01:55:57.317Z,461.1
2022-07-30T01:57:41.002Z,462
2022-07-30T01:59:24.696Z,464
2022-07-30T02:01:08.412Z,465.6
2022-07-30T02:02:52.109Z,466.8
2022-07-30T02:04:35.814Z,465.3
2022-07-30T02:06:19.521Z,462.8
2022-07-30T02:08:03.239Z,462.8
2022-07-30T02:09:46.931Z,462
2022-07-30T02:11:30.629Z,460.2
2022-07-30T02:13:14.326Z,458.1
2022-07-30T02:14:58.040Z,457.7
2022-07-30T02:16:41.735Z,458.3
2022-07-30T02:18:25.441Z,457.4
2022-07-30T02:20:09.134Z,454.4
2022-07-30T02:21:52.851Z,452.6
2022-07-30T02:23:36.568Z,452.3
2022-07-30T02:25:20.270Z,453.5
2022-07-30T02:27:03.955Z,455.8
2022-07-30T02:28:47.660Z,455.7
2022-07-30T02:30:31.375Z,454.8
2022-07-30T02:32:15.079Z,454.3
2022-07-30T02:33:58.777Z,452.1
2022-07-30T02:35:42.487Z,452.2
2022-07-30T02:37:26.195Z,450.5
2022-07-30T02:39:09.930Z,449
2022-07-30T02:40:53.587Z,449.7
2022-07-30T02:42:37.297Z,452.8
2022-07-30T02:44:20.992Z,453.8
2022-07-30T02:46:04.697Z,454.4
2022-07-30T02:47:48.384Z,456.1
2022-07-30T02:49:32.111Z,461.8
2022-07-30T02:51:15.806Z,462.1
2022-07-30T02:52:59.489Z,462.2
2022-07-30T02:54:43.201Z,463
2022-07-30T02:56:26.897Z,462.3
2022-07-30T02:58:10.616Z,460.7
2022-07-30T02:59:54.290Z,459.6
2022-07-30T03:01:37.996Z,463.6
2022-07-30T03:03:21.718Z,463
2022-07-30T03:05:05.447Z,464.9
2022-07-30T03:06:49.126Z,463.7
2022-07-30T03:08:32.815Z,460.6
2022-07-30T03:10:16.530Z,456.1
2022-07-30T03:12:00.222Z,455.6
2022-07-30T03:13:43.918Z,454.7
2022-07-30T03:15:27.609Z,454
2022-07-30T03:17:11.318Z,453.3
2022-07-30T03:18:55.017Z,451.8
2022-07-30T03:20:38.711Z,452.4
2022-07-30T03:22:22.432Z,454.3
2022-07-30T03:24:06.129Z,452.8
2022-07-30T03:25:49.831Z,455.1
2022-07-30T03:27:33.527Z,455.6
2022-07-30T03:29:17.229Z,455.7
2022-07-30T03:31:00.947Z,455.6
2022-07-30T03:32:44.634Z,453.8
2022-07-30T03:34:28.330Z,453.8
2022-07-30T03:36:12.034Z,454.9
2022-07-30T03:37:55.734Z,453.3
2022-07-30T03:39:39.443Z,453.5
2022-07-30T03:41:23.123Z,452.9
2022-07-30T03:43:06.846Z,454.6
2022-07-30T03:44:50.539Z,453.6
2022-07-30T03:46:34.231Z,456.9
2022-07-30T03:48:17.942Z,457.1
2022-07-30T03:50:01.660Z,457.7
2022-07-30T03:51:45.351Z,457.2
2022-07-30T03:53:29.043Z,456.3
2022-07-30T03:55:12.755Z,456
2022-07-30T03:56:56.443Z,455.1
2022-07-30T03:58:40.155Z,453.3
2022-07-30T04:00:23.855Z,454
2022-07-30T04:02:07.568Z,455.3
2022-07-30T04:03:51.264Z,457.2
2022-07-30T04:05:34.976Z,458.5
2022-07-30T04:07:18.679Z,460
2022-07-30T04:09:02.368Z,459
2022-07-30T04:10:46.071Z,457.9
2022-07-30T04:12:29.769Z,456.8
2022-07-30T04:14:13.483Z,458.1
2022-07-30T04:15:57.182Z,459.1
2022-07-30T04:17:40.859Z,459.6
2022-07-30T04:19:24.574Z,455.7
2022-07-30T04:21:08.273Z,456.4
2022-07-30T04:22:51.987Z,459.2
2022-07-30T04:24:35.733Z,459
2022-07-30T04:26:19.372Z,457.8
2022-07-30T04:28:03.090Z,456.7
2022-07-30T04:29:46.797Z,455
2022-07-30T04:31:30.497Z,455.2
2022-07-30T04:33:14.194Z,455.3
2022-07-30T04:34:57.916Z,455.6
2022-07-30T04:36:41.620Z,455.8
2022-07-30T04:38:25.307Z,456.8
2022-07-30T04:40:09.015Z,457.8
2022-07-30T04:41:52.720Z,458.1
2022-07-30T04:43:36.414Z,458.4
2022-07-30T04:45:20.148Z,454.3
2022-07-30T04:47:03.825Z,453
2022-07-30T04:48:47.541Z,458.4
2022-07-30T04:50:31.235Z,461.2
2022-07-30T04:52:14.930Z,461.1
2022-07-30T04:53:58.639Z,459.2
2022-07-30T04:55:42.361Z,460.7
2022-07-30T04:57:26.052Z,461.8
2022-07-30T04:59:09.745Z,459.6
2022-07-30T05:00:53.430Z,457
2022-07-30T05:02:37.148Z,456.6
2022-07-30T05:04:20.855Z,457.4
2022-07-30T05:06:04.560Z,458.7
2022-07-30T05:07:48.254Z,455.2
2022-07-30T05:09:31.962Z,453.7
2022-07-30T05:11:15.681Z,449.6
2022-07-30T05:12:59.362Z,445.6
2022-07-30T05:14:43.064Z,445.1
2022-07-30T05:16:26.778Z,445.1
2022-07-30T05:18:10.470Z,445.3
2022-07-30T05:19:54.185Z,448.3
2022-07-30T05:21:37.932Z,446
2022-07-30T05:23:21.590Z,446.4
2022-07-30T05:25:05.804Z,447.5
2022-07-30T05:26:49.001Z,448.5
2022-07-30T05:28:32.708Z,449.9
2022-07-30T05:30:16.405Z,447.2
2022-07-30T05:32:00.117Z,445.8
2022-07-30T05:33:43.798Z,444.8
2022-07-30T05:35:27.494Z,445.6
2022-07-30T05:37:11.195Z,445.3
2022-07-30T05:38:54.901Z,446.8
2022-07-30T05:40:38.611Z,448.4
2022-07-30T05:42:22.297Z,447.6
2022-07-30T05:44:05.992Z,452.2
2022-07-30T05:45:49.711Z,455.2
2022-07-30T05:47:33.390Z,454.9
2022-07-30T05:49:17.086Z,455.7
2022-07-30T05:51:00.805Z,456.9
2022-07-30T05:52:44.500Z,454.6
2022-07-30T05:54:28.188Z,454.3
2022-07-30T05:56:11.888Z,455.1
2022-07-30T05:57:55.595Z,457.2
2022-07-30T05:59:39.296Z,458.7
2022-07-30T06:01:22.985Z,457.6
2022-07-30T06:03:06.679Z,455.9
2022-07-30T06:04:50.388Z,455.3
2022-07-30T06:06:34.096Z,456.9
2022-07-30T06:08:17.776Z,455.4
2022-07-30T06:10:01.503Z,453
2022-07-30T06:11:45.176Z,450
2022-07-30T06:13:28.902Z,448.7
2022-07-30T06:15:12.599Z,445.1
2022-07-30T06:16:56.299Z,442.4
2022-07-30T06:18:40.004Z,442.9
2022-07-30T06:20:23.702Z,440.3
2022-07-30T06:22:07.398Z,440.7
2022-07-30T06:25:34.802Z,440.1
2022-07-30T06:27:18.501Z,436.2
2022-07-30T06:29:02.198Z,433
2022-07-30T06:30:45.907Z,431
2022-07-30T06:32:29.617Z,430.1
2022-07-30T06:34:13.329Z,429.4
2022-07-30T06:35:57.020Z,428.5
2022-07-30T06:37:40.715Z,426.8
2022-07-30T06:39:24.425Z,424.6
2022-07-30T06:41:08.118Z,425.7
2022-07-30T06:42:51.843Z,425.5
2022-07-30T06:44:35.526Z,427.2
2022-07-30T06:46:19.243Z,429.4
2022-07-30T06:48:02.919Z,430.7
2022-07-30T06:49:46.622Z,432.3
2022-07-30T06:51:30.343Z,432.2
2022-07-30T06:53:14.045Z,430.9
2022-07-30T06:54:57.729Z,428
2022-07-30T06:56:41.434Z,425
2022-07-30T06:58:25.153Z,422.9
2022-07-30T07:00:08.836Z,418.1
2022-07-30T07:01:52.522Z,411.9
2022-07-30T07:03:36.244Z,406.8
2022-07-30T07:05:19.953Z,404.6
2022-07-30T07:07:03.643Z,406
2022-07-30T07:08:47.347Z,405
2022-07-30T07:10:31.069Z,401.8
2022-07-30T07:12:14.756Z,399.9
2022-07-30T07:13:58.458Z,398.4
2022-07-30T07:15:42.164Z,392.6
2022-07-30T07:17:25.853Z,393.3
2022-07-30T07:19:09.558Z,393.8
2022-07-30T07:20:53.280Z,395.2
2022-07-30T07:22:36.975Z,397.5
2022-07-30T07:24:20.686Z,396.1
2022-07-30T07:26:04.386Z,396.3
2022-07-30T07:27:48.096Z,396.9
2022-07-30T07:29:31.785Z,395.9
2022-07-30T07:31:15.505Z,392.3
2022-07-30T07:32:59.213Z,392.1
2022-07-30T07:34:42.901Z,390.8
2022-07-30T07:36:26.611Z,392
2022-07-30T07:38:10.309Z,390.9
2022-07-30T07:39:54.012Z,389.4
2022-07-30T07:41:37.704Z,390.2
2022-07-30T07:43:21.435Z,388
2022-07-30T07:45:05.124Z,389.8
2022-07-30T07:46:48.833Z,389.3
2022-07-30T07:48:32.526Z,392.8
2022-07-30T07:50:16.223Z,396
2022-07-30T07:51:59.956Z,398.7
2022-07-30T07:53:43.620Z,400
2022-07-30T07:57:11.021Z,407.6
2022-07-30T07:58:54.778Z,409.2
2022-07-30T08:00:38.447Z,410.2
2022-07-30T08:02:22.135Z,412.1
2022-07-30T08:04:05.847Z,415.5
2022-07-30T08:05:49.542Z,418
2022-07-30T08:07:33.254Z,422.4
2022-07-30T08:09:16.940Z,425
2022-07-30T08:11:00.637Z,424.9
2022-07-30T08:12:44.355Z,425
2022-07-30T08:14:28.063Z,426
2022-07-30T08:16:11.738Z,429.8
2022-07-30T08:17:55.464Z,439.4
2022-07-30T08:19:39.157Z,446.8
2022-07-30T08:21:22.866Z,446.5
2022-07-30T08:23:06.560Z,439.9
2022-07-30T08:24:50.255Z,435.6
2022-07-30T08:26:33.969Z,433.5
2022-07-30T08:28:17.660Z,428.5
2022-07-30T08:30:01.367Z,423.5
2022-07-30T08:31:45.073Z,420.2
2022-07-30T08:33:28.771Z,417.8
2022-07-30T08:35:12.476Z,415.4
2022-07-30T08:36:56.159Z,415
2022-07-30T08:38:39.882Z,414.8
2022-07-30T08:40:23.568Z,411.2
2022-07-30T08:42:07.284Z,408.2
2022-07-30T08:43:50.966Z,405.7
2022-07-30T08:45:34.680Z,403.4
2022-07-30T08:47:18.383Z,399.2
2022-07-30T08:49:02.131Z,401.2
2022-07-30T08:50:45.785Z,401.2
2022-07-30T08:52:29.482Z,400.1
2022-07-30T08:54:13.189Z,402.6
2022-07-30T08:55:56.914Z,405.6
2022-07-30T08:57:40.606Z,406.4
2022-07-30T08:59:24.318Z,409.6
2022-07-30T09:01:07.989Z,422
2022-07-30T09:02:51.715Z,434.2
2022-07-30T09:04:35.391Z,445.4
2022-07-30T09:06:19.101Z,448.5
2022-07-30T09:08:02.797Z,444.2
2022-07-30T09:09:46.516Z,446.9
2022-07-30T09:11:30.206Z,447.7
2022-07-30T09:13:13.903Z,447.5
2022-07-30T09:14:57.614Z,443.9
2022-07-30T09:16:41.314Z,444.2
2022-07-30T09:18:25.004Z,448.4
2022-07-30T09:20:08.717Z,451.9
2022-07-30T09:21:52.415Z,453.1
2022-07-30T09:23:36.113Z,460.9
2022-07-30T09:25:19.820Z,462.9
2022-07-30T09:27:03.533Z,461
2022-07-30T09:28:47.240Z,462.9
2022-07-30T09:30:30.936Z,462.4
2022-07-30T09:32:14.641Z,460.4
2022-07-30T09:33:58.340Z,459.8
2022-07-30T09:35:42.051Z,458.3
2022-07-30T09:37:25.760Z,453.4
2022-07-30T09:39:09.451Z,452
2022-07-30T09:40:53.169Z,449.7
2022-07-30T09:42:36.865Z,447.2
2022-07-30T09:44:20.571Z,445
2022-07-30T09:46:04.327Z,443.8
2022-07-30T09:47:47.969Z,440.5
2022-07-30T09:49:31.679Z,434.9
2022-07-30T09:51:15.379Z,433.9
2022-07-30T09:52:59.108Z,433.3
2022-07-30T09:54:42.773Z,431.2
2022-07-30T09:56:26.486Z,431.9
2022-07-30T09:58:10.175Z,426.1
2022-07-30T09:59:53.917Z,423
2022-07-30T10:01:37.596Z,422.7
2022-07-30T10:03:21.303Z,424
2022-07-30T10:05:05.027Z,421.9
2022-07-30T10:06:48.740Z,419.2
2022-07-30T10:08:32.424Z,420.3
2022-07-30T10:10:16.090Z,419.8
2022-07-30T10:11:59.802Z,419.4
2022-07-30T10:13:43.495Z,417.1
2022-07-30T10:15:27.192Z,417.7
2022-07-30T10:17:10.941Z,421.8
2022-07-30T10:18:54.613Z,425.4
2022-07-30T10:20:38.299Z,444.3
2022-07-30T10:22:22.006Z,464.9
2022-07-30T10:24:05.727Z,474.4
2022-07-30T10:25:49.428Z,478.9
2022-07-30T10:27:33.906Z,478.8
2022-07-30T10:29:16.798Z,481.2
2022-07-30T10:31:00.547Z,484.8
2022-07-30T10:32:44.228Z,480.2
2022-07-30T10:34:27.926Z,475.1
2022-07-30T10:36:11.606Z,471.2
2022-07-30T10:37:55.332Z,467.8
2022-07-30T10:39:39.004Z,467.8
2022-07-30T10:41:22.697Z,467.4
2022-07-30T10:43:06.422Z,470.2
2022-07-30T10:44:50.112Z,473.8
2022-07-30T10:46:33.796Z,479.9
2022-07-30T10:48:17.520Z,489.6
2022-07-30T10:50:01.216Z,495.8
2022-07-30T10:51:44.927Z,498.5
2022-07-30T10:53:28.625Z,502
2022-07-30T10:55:12.323Z,504.3
2022-07-30T10:56:56.035Z,507.1
2022-07-30T10:58:39.729Z,509.3
2022-07-30T11:00:23.427Z,510.7
2022-07-30T11:02:07.140Z,512.2
2022-07-30T11:03:50.854Z,510.8
2022-07-30T11:05:34.547Z,513.3
2022-07-30T11:07:18.238Z,516
2022-07-30T11:09:01.941Z,517.4
2022-07-30T11:10:45.660Z,523
2022-07-30T11:12:29.349Z,527.8
2022-07-30T11:14:13.095Z,532.3
2022-07-30T11:15:56.754Z,532.5
2022-07-30T11:17:40.502Z,536.2
2022-07-30T11:19:27.534Z,536.3
2022-07-30T11:21:07.842Z,538.2
2022-07-30T11:22:51.555Z,539.5
2022-07-30T11:24:35.264Z,541.4
2022-07-30T11:26:18.978Z,541.4
2022-07-30T11:28:02.663Z,542.4
2022-07-30T11:29:46.370Z,540.7
2022-07-30T11:31:30.049Z,541.7
2022-07-30T11:33:13.765Z,542.3
2022-07-30T11:34:57.474Z,534.8
2022-07-30T11:36:41.180Z,535.6
2022-07-30T11:38:24.850Z,536.6
2022-07-30T11:40:08.559Z,538.1
2022-07-30T11:41:52.279Z,539.4
2022-07-30T11:43:35.976Z,531.8
2022-07-30T11:45:19.665Z,531.9
2022-07-30T11:47:03.358Z,536.5
2022-07-30T11:48:47.077Z,543.6
2022-07-30T11:50:30.795Z,551.6
2022-07-30T11:52:14.490Z,556.6
2022-07-30T11:53:58.176Z,559.4
2022-07-30T11:55:41.883Z,561
2022-07-30T11:57:25.590Z,562.7
2022-07-30T11:59:09.286Z,565.9
2022-07-30T12:00:53.006Z,569
2022-07-30T12:02:36.701Z,575.2
2022-07-30T12:04:20.411Z,581.3
2022-07-30T12:06:04.093Z,587.7
2022-07-30T12:07:47.803Z,595.7
2022-07-30T12:09:31.504Z,601
2022-07-30T12:11:15.211Z,603.2
2022-07-30T12:12:58.897Z,605.2
2022-07-30T12:14:42.627Z,607.8
2022-07-30T12:16:26.319Z,608.7
2022-07-30T12:18:10.012Z,608.2
2022-07-30T12:19:53.741Z,611.7
2022-07-30T12:21:37.440Z,618.8
2022-07-30T12:23:21.127Z,624.1
2022-07-30T12:25:04.824Z,627.4
2022-07-30T12:26:48.538Z,635.9
2022-07-30T12:28:32.238Z,638.7
2022-07-30T12:30:15.953Z,638.5
2022-07-30T12:31:59.631Z,641.1
2022-07-30T12:33:43.341Z,647
2022-07-30T12:35:27.049Z,652.2
2022-07-30T12:37:10.749Z,659.6
2022-07-30T12:38:54.447Z,666.5
2022-07-30T12:40:38.136Z,672.4
2022-07-30T12:42:21.849Z,674.6
2022-07-30T12:44:05.536Z,676.6
2022-07-30T12:45:49.226Z,674.3
2022-07-30T12:47:32.944Z,678.1
2022-07-30T12:49:16.645Z,683.7
2022-07-30T12:51:00.351Z,687.5
2022-07-30T12:52:44.036Z,691.9
2022-07-30T12:54:27.749Z,697.4
2022-07-30T12:56:11.446Z,698.4
2022-07-30T12:57:55.156Z,700.7
2022-07-30T12:59:38.851Z,703.8
2022-07-30T13:01:22.558Z,710
2022-07-30T13:03:06.252Z,714.6
2022-07-30T13:06:33.645Z,719.9
2022-07-30T13:08:17.348Z,720.7
2022-07-30T13:10:01.058Z,721.5
2022-07-30T13:11:45.727Z,720.8
2022-07-30T13:13:28.449Z,719
2022-07-30T13:15:12.170Z,720.7
2022-07-30T13:16:55.863Z,720.5
2022-07-30T13:18:39.575Z,716.3
2022-07-30T13:20:23.259Z,718.6
2022-07-30T13:22:06.947Z,724.9
2022-07-30T13:23:50.655Z,726.9
2022-07-30T13:25:34.368Z,728.5
2022-07-30T13:27:18.062Z,729.4
2022-07-30T13:29:01.766Z,733.3
2022-07-30T13:30:45.474Z,737.9
2022-07-30T13:32:29.180Z,743
2022-07-30T13:34:12.889Z,748.1
2022-07-30T13:35:56.590Z,752
2022-07-30T13:37:40.294Z,752.7
2022-07-30T13:39:24.031Z,754.9
2022-07-30T13:41:07.685Z,756
2022-07-30T13:42:51.466Z,757.8
2022-07-30T13:44:35.100Z,760
2022-07-30T13:46:18.793Z,762.8
2022-07-30T13:48:02.506Z,766.8
2022-07-30T13:49:46.198Z,776.7
2022-07-30T13:51:29.908Z,785.8
2022-07-30T13:53:13.603Z,787.2
2022-07-30T13:54:57.315Z,787.2
2022-07-30T13:56:41.014Z,792.8
2022-07-30T13:58:24.714Z,798.2
2022-07-30T14:00:08.437Z,801.5
2022-07-30T14:01:52.165Z,805.8
2022-07-30T14:03:35.825Z,812.1
2022-07-30T14:05:19.513Z,817.3
2022-07-30T14:07:03.216Z,820.7
2022-07-30T14:08:46.930Z,824.1
2022-07-30T14:10:30.638Z,825.3
2022-07-30T14:12:14.332Z,831.3
2022-07-30T14:13:58.023Z,838.4
2022-07-30T14:15:41.768Z,839.4
2022-07-30T14:17:25.506Z,841.9
2022-07-30T14:19:09.162Z,845.4
2022-07-30T14:20:52.840Z,847.3
2022-07-30T14:22:36.537Z,846.9
2022-07-30T14:24:20.243Z,845.4
2022-07-30T14:26:03.938Z,843.5
2022-07-30T14:27:47.637Z,843.5
2022-07-30T14:29:31.341Z,843.5
2022-07-30T14:31:15.046Z,843.8
2022-07-30T14:32:58.752Z,840.8
2022-07-30T14:34:42.443Z,838.3
2022-07-30T14:36:26.167Z,839.2
2022-07-30T14:38:09.852Z,840.2
2022-07-30T14:39:53.559Z,837.4
2022-07-30T14:41:37.265Z,836.2
2022-07-30T14:43:20.961Z,836
2022-07-30T14:45:04.658Z,834.8
2022-07-30T14:46:48.353Z,834.9
2022-07-30T14:48:32.080Z,838
2022-07-30T14:50:15.765Z,836.4
2022-07-30T14:51:59.452Z,833.9
2022-07-30T14:53:43.152Z,834.1
2022-07-30T14:55:26.874Z,834.1
2022-07-30T14:57:10.573Z,834.4
2022-07-30T14:58:54.259Z,837
2022-07-30T15:00:37.964Z,841.1
2022-07-30T15:02:21.662Z,843.5
2022-07-30T15:04:05.384Z,844.6
2022-07-30T15:05:49.080Z,847.4
2022-07-30T15:07:32.769Z,849.6
2022-07-30T15:09:16.479Z,856.1
2022-07-30T15:11:00.191Z,858.2
2022-07-30T15:12:43.876Z,861.4
2022-07-30T15:14:27.565Z,866.7
2022-07-30T15:16:11.286Z,869.5
2022-07-30T15:17:54.989Z,871.3
2022-07-30T15:19:38.690Z,873
2022-07-30T15:21:22.384Z,875.2
2022-07-30T15:23:06.087Z,875.8
2022-07-30T15:24:49.780Z,879.9
2022-07-30T15:26:33.491Z,880.1
2022-07-30T15:28:17.174Z,880.8
2022-07-30T15:30:00.926Z,882.5
2022-07-30T15:31:44.601Z,888
2022-07-30T15:33:28.315Z,890.4
2022-07-30T15:35:11.989Z,893.3
2022-07-30T15:36:55.704Z,894.1
2022-07-30T15:38:39.394Z,897.9
2022-07-30T15:40:23.094Z,906.8
2022-07-30T15:42:06.794Z,912.8
2022-07-30T15:43:50.510Z,914.7
2022-07-30T15:45:34.182Z,917.2
2022-07-30T15:47:17.909Z,916.3
2022-07-30T15:49:01.604Z,921.7
2022-07-30T15:50:45.344Z,922.9
2022-07-30T15:52:28.994Z,922.7
2022-07-30T15:54:12.700Z,927
2022-07-30T15:55:56.409Z,933.1
2022-07-30T15:57:40.104Z,937.7
2022-07-30T15:59:23.805Z,941.8
2022-07-30T16:01:07.518Z,937.3
2022-07-30T16:02:51.223Z,934.4
2022-07-30T16:04:34.898Z,930.3
2022-07-30T16:06:18.601Z,928
2022-07-30T16:08:02.317Z,927.4
2022-07-30T16:09:46.007Z,926
2022-07-30T16:11:29.711Z,919.5
2022-07-30T16:13:13.431Z,911.2
2022-07-30T16:14:57.128Z,906.6
2022-07-30T16:16:40.827Z,902.4
2022-07-30T16:18:24.529Z,898.8
2022-07-30T16:20:08.230Z,891.7
2022-07-30T16:21:51.925Z,885.5
2022-07-30T16:23:35.705Z,879.1
2022-07-30T16:25:19.337Z,875.4
2022-07-30T16:27:03.056Z,870.3
2022-07-30T16:28:46.730Z,864.8
2022-07-30T16:30:30.467Z,862.4
2022-07-30T16:32:14.130Z,858.6
2022-07-30T16:33:57.838Z,854.2
2022-07-30T16:35:41.536Z,851.9
2022-07-30T16:37:25.251Z,853.2
2022-07-30T16:39:08.949Z,850.7
2022-07-30T16:40:52.637Z,846
2022-07-30T16:42:36.349Z,841.1
2022-07-30T16:44:20.052Z,835.9
2022-07-30T16:46:03.730Z,834.2
2022-07-30T16:47:47.434Z,829.8
2022-07-30T16:49:31.137Z,824.8
2022-07-30T16:51:14.847Z,820.4
2022-07-30T16:52:58.552Z,818.5
2022-07-30T16:54:42.266Z,817.7
2022-07-30T16:56:25.955Z,814
2022-07-30T16:58:09.654Z,810.5
2022-07-30T16:59:53.363Z,807
2022-07-30T17:01:37.061Z,803.9
2022-07-30T17:03:20.747Z,801.1
2022-07-30T17:05:04.453Z,798.2
2022-07-30T17:08:31.872Z,793
2022-07-30T17:10:15.622Z,792.9
2022-07-30T17:11:59.274Z,790.7
2022-07-30T17:13:42.982Z,788.7
2022-07-30T17:15:26.692Z,786
2022-07-30T17:17:10.388Z,786.4
2022-07-30T17:18:54.090Z,785.1
2022-07-30T17:20:37.792Z,782.2
2022-07-30T17:22:21.503Z,778.8
2022-07-30T17:24:05.202Z,777.1
2022-07-30T17:25:48.893Z,773.1
2022-07-30T17:27:32.593Z,770
2022-07-30T17:29:16.306Z,764
2022-07-30T17:31:00.016Z,760.6
2022-07-30T17:32:43.707Z,761.3
2022-07-30T17:34:27.393Z,760.9
2022-07-30T17:36:11.101Z,757.6
2022-07-30T17:37:54.801Z,758.1
2022-07-30T17:39:38.487Z,757.9
2022-07-30T17:41:22.203Z,759.4
2022-07-30T17:43:05.909Z,758.4
2022-07-30T17:44:49.604Z,760.6
2022-07-30T17:46:33.289Z,758.2
2022-07-30T17:48:17.017Z,754.2
2022-07-30T17:50:00.735Z,750.5
2022-07-30T17:51:44.420Z,747.1
2022-07-30T17:53:28.098Z,742.4
2022-07-30T17:55:11.808Z,738.7
2022-07-30T17:56:55.521Z,736.2
2022-07-30T17:58:39.204Z,734.3
2022-07-30T18:00:22.913Z,733.4
2022-07-30T18:02:06.627Z,732.3
2022-07-30T18:03:50.336Z,732.2
2022-07-30T18:05:34.010Z,731.1
2022-07-30T18:07:17.717Z,729.5
2022-07-30T18:09:01.422Z,723.7
2022-07-30T18:10:45.126Z,724.5
2022-07-30T18:12:28.841Z,724.9
2022-07-30T18:14:12.538Z,723.6
2022-07-30T18:15:56.252Z,723.7
2022-07-30T18:17:39.963Z,722.7
2022-07-30T18:19:23.635Z,723.6
2022-07-30T18:21:07.377Z,721.7
2022-07-30T18:22:51.074Z,723.4
2022-07-30T18:24:34.744Z,723.4
2022-07-30T18:26:18.472Z,724.3
2022-07-30T18:28:02.154Z,717.6
2022-07-30T18:29:45.872Z,715.5
2022-07-30T18:31:29.590Z,714.1
2022-07-30T18:33:13.262Z,713.3
2022-07-30T18:34:56.972Z,713.9
2022-07-30T18:36:40.663Z,712
2022-07-30T18:38:24.369Z,712.7
2022-07-30T18:40:08.067Z,708.3
2022-07-30T18:41:51.770Z,701.2
2022-07-30T18:43:35.471Z,697.5
2022-07-30T18:45:19.189Z,691.1
2022-07-30T18:47:02.870Z,688.7
2022-07-30T18:48:46.574Z,687.9
2022-07-30T18:50:30.291Z,690.5
2022-07-30T18:52:14.013Z,696.3
2022-07-30T18:53:57.701Z,698.1
2022-07-30T18:55:41.402Z,705
2022-07-30T18:57:25.093Z,707.5
2022-07-30T18:59:08.800Z,705.1
2022-07-30T19:00:52.508Z,706.8
2022-07-30T19:02:36.207Z,706.5
2022-07-30T19:04:19.907Z,706.5
2022-07-30T19:06:03.624Z,706.1
2022-07-30T19:07:47.305Z,708.2
2022-07-30T19:09:31.012Z,704.6
2022-07-30T19:11:14.746Z,703.2
2022-07-30T19:12:58.425Z,703.4
2022-07-30T19:14:42.120Z,699.1
2022-07-30T19:16:25.827Z,693.6
2022-07-30T19:18:09.536Z,689.7
2022-07-30T19:19:53.242Z,687.9
2022-07-30T19:21:36.928Z,686.1
2022-07-30T19:23:20.638Z,684.8
2022-07-30T19:25:04.333Z,683.2
2022-07-30T19:26:48.041Z,679.8
2022-07-30T19:28:31.727Z,678.3
2022-07-30T19:30:15.451Z,677.2
2022-07-30T19:31:59.153Z,674.1
2022-07-30T19:33:42.862Z,672.4
2022-07-30T19:35:26.547Z,668.3
2022-07-30T19:37:10.254Z,623.7
2022-07-30T19:38:53.936Z,601.6
2022-07-30T19:40:37.670Z,593.3
2022-07-30T19:42:21.352Z,586.9
2022-07-30T19:44:05.092Z,580.1
2022-07-30T19:45:48.762Z,572.2
2022-07-30T19:47:32.446Z,561.4
2022-07-30T19:49:16.166Z,555.9
2022-07-30T19:50:59.863Z,551.2
2022-07-30T19:52:43.559Z,549.8
2022-07-30T19:54:27.266Z,545.4
2022-07-30T19:56:10.951Z,539.8
2022-07-30T19:57:54.656Z,535.6
2022-07-30T19:59:38.362Z,528.9
2022-07-30T20:01:22.060Z,524.2
2022-07-30T20:03:05.757Z,522.7
2022-07-30T20:04:49.450Z,517.1
2022-07-30T20:06:33.173Z,516
2022-07-30T20:08:16.906Z,515.8
2022-07-30T20:10:00.578Z,510.5
2022-07-30T20:11:44.279Z,507.7
2022-07-30T20:13:27.963Z,504.6
2022-07-30T20:15:11.669Z,499.7
2022-07-30T20:16:55.380Z,498.8
2022-07-30T20:18:39.072Z,496.6
2022-07-30T20:20:22.752Z,492.5
2022-07-30T20:22:06.479Z,488.3
2022-07-30T20:23:50.156Z,483.2
2022-07-30T20:25:33.865Z,477
2022-07-30T20:27:17.574Z,474.8
2022-07-30T20:29:01.280Z,468.9
2022-07-30T20:30:44.937Z,468.3
2022-07-30T20:32:28.672Z,470
2022-07-30T20:34:12.357Z,466.6
2022-07-30T20:35:56.058Z,463.9
2022-07-30T20:37:39.757Z,463.6
2022-07-30T20:39:23.449Z,466.1
2022-07-30T20:41:07.177Z,469.7
2022-07-30T20:42:50.872Z,474.8
2022-07-30T20:44:34.565Z,475.5
2022-07-30T20:46:18.277Z,475.6
2022-07-30T20:48:01.992Z,473.4
2022-07-30T20:49:45.676Z,472.6
2022-07-30T20:51:29.371Z,474
2022-07-30T20:53:13.072Z,474.2
2022-07-30T20:54:56.814Z,473.6
2022-07-30T20:56:40.489Z,472.5
2022-07-30T20:58:24.184Z,467
2022-07-30T21:00:07.877Z,463.7
2022-07-30T21:01:51.612Z,461.1
2022-07-30T21:03:35.292Z,460.3
2022-07-30T21:05:19.000Z,457.1
2022-07-30T21:07:02.731Z,456.5
2022-07-30T21:08:46.403Z,454.8
2022-07-30T21:10:30.104Z,453.2
2022-07-30T21:12:13.828Z,454.1
2022-07-30T21:13:57.495Z,452.7
2022-07-30T21:15:41.208Z,449.5
2022-07-30T21:17:24.901Z,449.5
2022-07-30T21:19:08.609Z,452.6
2022-07-30T21:20:52.324Z,454.6
2022-07-30T21:22:36.019Z,456.6
2022-07-30T21:24:19.739Z,457.9
2022-07-30T21:26:03.414Z,459.6
2022-07-30T21:27:47.114Z,460
2022-07-30T21:29:30.828Z,457.8
2022-07-30T21:31:14.505Z,456.9
2022-07-30T21:32:58.225Z,455.4
2022-07-30T21:34:41.948Z,453.2
2022-07-30T21:36:25.639Z,451
2022-07-30T21:38:09.325Z,450.3
2022-07-30T21:39:53.029Z,448.6
2022-07-30T21:41:36.720Z,446.4
2022-07-30T21:43:20.418Z,443.9
2022-07-30T21:45:04.134Z,444.1
2022-07-30T21:46:47.817Z,445.6
2022-07-30T21:48:31.529Z,444.8
2022-07-30T21:50:15.226Z,445.3
2022-07-30T21:51:58.931Z,445.7
2022-07-30T21:53:42.623Z,445.2
2022-07-30T21:55:26.327Z,446.7
2022-07-30T21:57:10.021Z,450.5
2022-07-30T21:58:53.730Z,450.9
2022-07-30T22:00:37.429Z,452.4
2022-07-30T22:02:21.733Z,454.3
2022-07-30T22:04:04.829Z,457.4
2022-07-30T22:05:48.519Z,461.4
2022-07-30T22:07:32.244Z,461.1
2022-07-30T22:09:15.931Z,459.9
2022-07-30T22:10:59.639Z,460.3
2022-07-30T22:12:43.351Z,461.3
2022-07-30T22:14:27.022Z,459.8
2022-07-30T22:16:10.782Z,459.4
2022-07-30T22:17:54.435Z,458.6
2022-07-30T22:19:38.404Z,461.4
2022-07-30T22:21:22.022Z,462.6
2022-07-30T22:23:05.540Z,461.2
2022-07-30T22:24:49.238Z,460.2
2022-07-30T22:26:32.967Z,459.2
2022-07-30T22:28:16.650Z,456.8
2022-07-30T22:30:00.594Z,455.8
2022-07-30T22:31:44.060Z,452.5